Time;durP1;ratioP1;P1;durP2;ratioP2;P2;SDS_P1;SDS_P2;PMS_P1;PMS_P2;Temp;Humidity;BMP_temperature;BMP_pressure;BME280_temperature;BME280_humidity;BME280_pressure;Samples;Min_cycle;Max_cycle;Signal;HPM_P1;HPM_P2
2022/10/11 00:01:37;;;;;;;10.07;1.98;;;7.90;99.90;;;;;;5094059;28;20051;-66
2022/10/11 00:04:03;;;;;;;10.02;2.17;;;7.70;99.90;;;;;;5093326;28;20044;-66
2022/10/11 00:06:29;;;;;;;8.32;1.80;;;7.60;99.90;;;;;;5095756;28;20044;-66
2022/10/11 00:08:54;;;;;;;12.90;2.28;;;7.90;99.90;;;;;;5094024;28;20032;-66
2022/10/11 00:11:20;;;;;;;8.05;2.78;;;7.80;99.90;;;;;;5084698;28;20047;-66
2022/10/11 00:13:45;;;;;;;15.20;2.00;;;7.70;99.90;;;;;;5074934;28;20036;-66
2022/10/11 00:16:13;;;;;;;6.07;1.83;;;7.70;99.90;;;;;;5083606;28;20028;-66
2022/10/11 00:18:39;;;;;;;8.65;1.95;;;7.80;99.90;;;;;;5079593;28;20510;-66
2022/10/11 00:21:10;;;;;;;11.05;2.90;;;7.80;99.90;;;;;;5091365;28;20040;-66
2022/10/11 00:23:36;;;;;;;5.10;1.80;;;7.90;99.90;;;;;;5074876;28;20532;-66
2022/10/11 00:26:04;;;;;;;9.38;2.00;;;7.80;99.90;;;;;;5089353;28;20052;-66
2022/10/11 00:28:30;;;;;;;7.72;2.30;;;7.70;99.90;;;;;;5095160;28;20040;-66
2022/10/11 00:30:55;;;;;;;10.13;3.63;;;7.70;99.90;;;;;;5095080;28;20398;-66
2022/10/11 00:33:21;;;;;;;11.93;2.40;;;7.80;99.90;;;;;;5079057;28;20040;-66
2022/10/11 00:35:47;;;;;;;7.30;2.30;;;;;;;;;;5082996;28;20044;-66
2022/10/11 00:38:13;;;;;;;7.03;2.03;;;7.80;99.90;;;;;;5073276;28;20040;-66
2022/10/11 00:40:39;;;;;;;8.55;2.00;;;7.80;99.90;;;;;;5084528;28;20046;-66
2022/10/11 00:43:15;;;;;;;6.93;2.63;;;7.60;99.90;;;;;;5094750;28;20553;-66
2022/10/11 00:45:55;;;;;;;11.80;2.25;;;7.80;99.90;;;;;;5093365;28;20096;-66
2022/10/11 00:48:41;;;;;;;11.23;2.08;;;7.80;99.90;;;;;;5090412;28;20055;-66
2022/10/11 00:51:15;;;;;;;13.02;2.08;;;7.60;99.90;;;;;;5085532;28;20371;-66
2022/10/11 00:53:42;;;;;;;13.53;2.40;;;7.70;99.90;;;;;;5089505;28;20149;-66
2022/10/11 00:56:23;;;;;;;5.72;2.47;;;7.60;99.90;;;;;;5056346;28;20041;-66
2022/10/11 00:58:50;;;;;;;8.25;2.42;;;7.80;99.90;;;;;;5079593;28;20111;-66
2022/10/11 01:01:15;;;;;;;9.77;1.90;;;7.60;99.90;;;;;;5094331;28;20131;-66
2022/10/11 01:03:41;;;;;;;7.28;1.80;;;7.70;99.90;;;;;;5092911;28;20476;-66
2022/10/11 01:06:08;;;;;;;7.95;2.15;;;7.60;99.90;;;;;;5094365;28;20055;-66
2022/10/11 01:08:35;;;;;;;6.68;1.65;;;;;;;;;;5078266;28;20489;-66
2022/10/11 01:11:01;;;;;;;7.57;1.60;;;7.60;99.90;;;;;;5072913;28;20029;-66
2022/10/11 01:13:56;;;;;;;7.78;1.85;;;7.50;99.90;;;;;;5072528;28;20040;-66
2022/10/11 01:16:25;;;;;;;11.38;2.45;;;7.40;99.90;;;;;;5072686;28;20498;-66
2022/10/11 01:19:04;;;;;;;7.78;1.90;;;7.50;99.90;;;;;;5089030;28;20044;-66
2022/10/11 01:21:41;;;;;;;9.85;1.85;;;7.60;99.90;;;;;;5079878;28;20043;-66
2022/10/11 01:24:37;;;;;;;7.20;2.47;;;7.50;99.90;;;;;;5094038;28;20119;-66
2022/10/11 01:27:24;;;;;;;8.25;2.22;;;7.60;99.90;;;;;;5084385;28;20360;-66
2022/10/11 01:30:03;;;;;;;10.35;2.15;;;7.50;99.90;;;;;;5092525;28;20032;-66
2022/10/11 01:32:59;;;;;;;3.15;1.90;;;7.50;99.90;;;;;;5093775;28;20047;-66
2022/10/11 01:35:28;;;;;;;7.95;1.75;;;7.50;99.90;;;;;;5092857;28;20051;-66
2022/10/11 01:38:25;;;;;;;9.85;2.20;;;7.60;99.90;;;;;;5092371;28;20458;-66
2022/10/11 01:41:01;;;;;;;7.53;2.10;;;7.50;99.90;;;;;;5082437;28;20146;-66
2022/10/11 01:43:28;;;;;;;7.10;1.80;;;7.60;99.90;;;;;;5087696;28;20086;-66
2022/10/11 01:45:56;;;;;;;6.68;1.42;;;7.50;99.90;;;;;;5091843;28;20044;-66
2022/10/11 01:48:21;;;;;;;5.82;1.60;;;7.50;99.90;;;;;;5093386;28;20119;-66
2022/10/11 01:50:49;;;;;;;8.95;2.00;;;7.50;99.90;;;;;;5093532;28;20067;-66
2022/10/11 01:53:32;;;;;;;6.10;2.03;;;7.60;99.90;;;;;;5093293;28;20409;-66
2022/10/11 01:56:35;;;;;;;10.70;1.92;;;7.50;99.90;;;;;;5092569;28;20043;-66
2022/10/11 01:59:10;;;;;;;8.60;1.83;;;7.60;99.90;;;;;;5072055;28;20037;-66
2022/10/11 02:01:59;;;;;;;8.60;1.70;;;7.60;99.90;;;;;;5087172;28;20052;-66
2022/10/11 02:05:04;;;;;;;6.45;1.92;;;7.60;99.90;;;;;;5081424;28;20040;-66
2022/10/11 02:07:54;;;;;;;10.13;2.53;;;7.50;99.90;;;;;;5092140;28;20051;-66
2022/10/11 02:10:31;;;;;;;7.18;2.67;;;7.50;99.90;;;;;;5076940;28;20041;-66
2022/10/11 02:13:11;;;;;;;7.10;2.17;;;7.50;99.90;;;;;;5076502;28;20462;-66
2022/10/11 02:15:39;;;;;;;11.20;1.85;;;7.60;99.90;;;;;;5077906;28;20478;-66
2022/10/11 02:18:14;;;;;;;6.22;1.73;;;7.70;99.90;;;;;;5082027;28;20051;-66
2022/10/11 02:20:41;;;;;;;7.50;1.73;;;7.60;99.90;;;;;;5089115;28;20094;-65
2022/10/11 02:23:19;;;;;;;5.88;1.50;;;7.50;99.90;;;;;;5078769;28;20087;-66
2022/10/11 02:25:46;;;;;;;12.48;2.25;;;7.70;99.90;;;;;;5092525;28;20044;-66
2022/10/11 02:28:17;;;;;;;7.15;2.10;;;7.60;99.90;;;;;;5078723;28;20028;-66
2022/10/11 02:30:44;;;;;;;3.65;1.90;;;7.50;99.90;;;;;;5093176;28;20431;-66
2022/10/11 02:33:13;;;;;;;10.48;2.13;;;7.40;99.90;;;;;;5082152;28;20119;-66
2022/10/11 02:35:43;;;;;;;10.68;2.05;;;7.50;99.90;;;;;;5089812;28;20432;-66
2022/10/11 02:38:25;;;;;;;7.40;2.33;;;7.60;99.90;;;;;;5090847;28;20397;-66
2022/10/11 02:40:59;;;;;;;7.00;1.83;;;7.70;99.90;;;;;;5085519;28;20490;-66
2022/10/11 02:43:35;;;;;;;12.70;2.33;;;7.60;99.90;;;;;;5092817;28;20409;-66
2022/10/11 02:46:02;;;;;;;8.93;1.75;;;7.60;99.90;;;;;;5092207;28;20034;-66
2022/10/11 02:48:29;;;;;;;5.03;1.58;;;7.70;99.90;;;;;;5079726;28;20041;-66
2022/10/11 02:50:58;;;;;;;6.30;1.88;;;7.60;99.90;;;;;;5085534;28;20043;-66
2022/10/11 02:53:25;;;;;;;6.35;1.58;;;7.50;99.90;;;;;;5071339;28;20456;-66
2022/10/11 02:55:53;;;;;;;9.10;2.03;;;7.40;99.90;;;;;;5086860;28;20033;-66
2022/10/11 02:58:19;;;;;;;5.07;1.52;;;;;;;;;;5071207;28;20041;-66
2022/10/11 03:00:44;;;;;;;8.60;1.58;;;7.40;99.90;;;;;;5085360;28;20052;-66
2022/10/11 03:03:10;;;;;;;12.85;2.05;;;7.30;99.90;;;;;;5080151;28;20044;-66
2022/10/11 03:05:39;;;;;;;2.95;1.00;;;7.40;99.90;;;;;;5092795;28;20059;-66
2022/10/11 03:08:10;;;;;;;3.60;0.88;;;7.40;99.90;;;;;;5090957;28;20051;-66
2022/10/11 03:10:37;;;;;;;4.80;1.58;;;7.10;99.90;;;;;;5092421;28;20493;-66
2022/10/11 03:13:02;;;;;;;2.63;1.10;;;7.00;99.90;;;;;;5092009;28;20383;-66
2022/10/11 03:15:28;;;;;;;2.78;1.02;;;7.00;99.90;;;;;;5080633;28;20044;-66
2022/10/11 03:17:54;;;;;;;2.22;1.10;;;7.10;99.90;;;;;;5072246;28;20044;-66
2022/10/11 03:20:20;;;;;;;4.00;2.00;;;7.00;99.90;;;;;;5071063;28;20032;-66
2022/10/11 03:22:45;;;;;;;4.50;0.95;;;7.00;99.90;;;;;;5085595;28;20079;-66
2022/10/11 03:25:11;;;;;;;2.35;0.80;;;6.90;99.90;;;;;;5092527;28;20082;-66
2022/10/11 03:27:37;;;;;;;3.58;1.00;;;6.90;99.90;;;;;;5092569;28;20036;-66
2022/10/11 03:30:03;;;;;;;4.32;1.10;;;6.90;99.90;;;;;;5086771;28;20043;-66
2022/10/11 03:32:29;;;;;;;1.58;0.93;;;6.90;99.90;;;;;;5070818;28;20090;-66
2022/10/11 03:34:55;;;;;;;3.08;0.95;;;6.80;99.90;;;;;;5085009;28;20448;-66
2022/10/11 03:37:20;;;;;;;3.40;1.30;;;6.70;99.90;;;;;;5070896;28;20047;-66
2022/10/11 03:39:46;;;;;;;2.95;1.10;;;6.80;99.90;;;;;;5089369;28;20036;-66
2022/10/11 03:42:12;;;;;;;3.33;1.15;;;6.70;99.90;;;;;;5089376;28;20124;-66
2022/10/11 03:44:38;;;;;;;79.72;4.20;;;6.80;99.90;;;;;;5082835;28;20126;-66
2022/10/11 03:47:04;;;;;;;1.90;0.70;;;6.80;99.90;;;;;;5080260;28;20116;-66
2022/10/11 03:49:30;;;;;;;2.97;1.00;;;6.70;99.90;;;;;;5095790;28;20043;-66
2022/10/11 03:51:56;;;;;;;4.53;1.10;;;6.80;99.90;;;;;;5079716;28;20124;-66
2022/10/11 03:54:22;;;;;;;5.72;1.33;;;6.50;99.90;;;;;;5075493;28;20119;-65
2022/10/11 03:56:47;;;;;;;2.22;1.05;;;6.60;99.90;;;;;;5089493;28;20039;-66
2022/10/11 03:59:13;;;;;;;4.20;0.90;;;6.50;99.90;;;;;;5081399;28;20498;-66
2022/10/11 04:01:38;;;;;;;3.75;1.27;;;6.50;99.90;;;;;;5083586;28;20520;-66
2022/10/11 04:04:04;;;;;;;3.28;1.00;;;6.30;99.90;;;;;;5073815;28;20041;-66
2022/10/11 04:06:30;;;;;;;2.35;0.93;;;6.20;99.90;;;;;;5075159;28;20044;-66
2022/10/11 04:08:56;;;;;;;2.13;1.25;;;6.50;99.90;;;;;;5089506;28;20047;-66
2022/10/11 04:11:21;;;;;;;3.53;0.95;;;6.40;99.90;;;;;;5073933;28;20630;-66
2022/10/11 04:13:47;;;;;;;6.40;1.40;;;6.20;99.90;;;;;;5075224;28;20145;-66
2022/10/11 04:16:13;;;;;;;4.82;1.35;;;6.30;99.90;;;;;;5075215;28;20032;-66
2022/10/11 04:18:38;;;;;;;1.42;0.82;;;6.40;99.90;;;;;;5073744;28;20094;-66
2022/10/11 04:21:04;;;;;;;2.72;1.13;;;6.40;99.90;;;;;;5087791;28;20036;-66
2022/10/11 04:23:31;;;;;;;3.42;1.27;;;6.30;99.90;;;;;;5084500;28;20036;-66
2022/10/11 04:25:56;;;;;;;4.03;1.00;;;6.30;99.90;;;;;;5091998;28;20127;-66
2022/10/11 04:28:22;;;;;;;5.65;1.35;;;6.50;99.90;;;;;;5081401;28;20127;-66
2022/10/11 04:30:47;;;;;;;2.00;1.30;;;6.40;99.90;;;;;;5079948;28;20044;-66
2022/10/11 04:33:13;;;;;;;7.00;1.92;;;6.40;99.90;;;;;;5093382;28;20522;-66
2022/10/11 04:35:39;;;;;;;4.90;1.13;;;6.20;99.90;;;;;;5081895;28;20037;-66
2022/10/11 04:38:04;;;;;;;5.10;0.98;;;6.20;99.90;;;;;;5077966;28;20049;-66
2022/10/11 04:40:30;;;;;;;3.95;1.10;;;6.30;99.90;;;;;;5089268;28;20122;-66
2022/10/11 04:42:56;;;;;;;3.42;1.20;;;6.20;99.90;;;;;;5094717;28;20036;-66
2022/10/11 04:45:22;;;;;;;4.68;1.02;;;6.10;99.90;;;;;;5090131;28;20043;-66
2022/10/11 04:47:47;;;;;;;4.13;1.08;;;6.10;99.90;;;;;;5085028;28;20395;-66
2022/10/11 04:50:13;;;;;;;2.58;1.20;;;6.20;99.90;;;;;;5075338;28;20509;-66
2022/10/11 04:52:39;;;;;;;4.35;1.30;;;6.00;99.90;;;;;;5093212;28;20051;-66
2022/10/11 04:55:05;;;;;;;1.95;0.93;;;5.90;99.90;;;;;;5079677;28;20045;-66
2022/10/11 04:57:30;;;;;;;1.50;0.82;;;6.10;99.90;;;;;;5093021;28;20046;-66
2022/10/11 04:59:56;;;;;;;2.50;1.10;;;6.20;99.90;;;;;;5081403;28;20055;-66
2022/10/11 05:02:21;;;;;;;1.45;1.10;;;6.20;99.90;;;;;;5088035;28;20417;-66
2022/10/11 05:04:47;;;;;;;2.50;0.80;;;6.00;99.90;;;;;;5074097;28;20125;-66
2022/10/11 05:07:13;;;;;;;1.52;1.00;;;;;;;;;;5073842;28;20036;-65
2022/10/11 05:09:38;;;;;;;1.92;0.70;;;5.90;99.90;;;;;;5081798;28;20040;-66
2022/10/11 05:12:05;;;;;;;2.15;1.10;;;5.80;99.90;;;;;;5080517;28;20397;-66
2022/10/11 05:14:30;;;;;;;2.30;1.15;;;6.10;99.90;;;;;;5073512;28;20461;-66
2022/10/11 05:16:56;;;;;;;4.32;1.13;;;6.10;99.90;;;;;;5073878;28;20112;-66
2022/10/11 05:19:21;;;;;;;1.85;0.90;;;6.10;99.90;;;;;;5075646;28;20036;-66
2022/10/11 05:21:47;;;;;;;2.88;1.13;;;6.10;99.90;;;;;;5066339;28;20479;-66
2022/10/11 05:24:12;;;;;;;6.60;1.10;;;5.90;99.90;;;;;;5074934;28;20083;-66
2022/10/11 05:26:38;;;;;;;4.55;1.42;;;5.90;99.90;;;;;;5092793;28;20075;-66
2022/10/11 05:29:03;;;;;;;6.03;1.63;;;5.90;99.90;;;;;;5092547;28;20055;-66
2022/10/11 05:31:29;;;;;;;5.50;1.40;;;6.00;99.90;;;;;;5092458;28;20093;-66
2022/10/11 05:33:55;;;;;;;6.95;3.83;;;5.90;99.90;;;;;;5080946;28;20398;-66
2022/10/11 05:36:20;;;;;;;8.52;1.80;;;6.00;99.90;;;;;;5087599;28;20126;-66
2022/10/11 05:38:46;;;;;;;2.75;1.38;;;6.00;99.90;;;;;;5072102;28;20406;-66
2022/10/11 05:41:16;;;;;;;7.70;2.10;;;5.70;99.90;;;;;;5089044;28;20028;-66
2022/10/11 05:43:43;;;;;;;2.95;1.10;;;5.80;99.90;;;;;;5090825;28;20041;-66
2022/10/11 05:46:09;;;;;;;5.07;1.52;;;5.80;99.90;;;;;;5093657;28;20036;-66
2022/10/11 05:48:35;;;;;;;2.85;1.30;;;5.80;99.90;;;;;;5091447;28;20047;-66
2022/10/11 05:51:03;;;;;;;3.60;1.30;;;5.70;99.90;;;;;;5071844;28;20040;-65
2022/10/11 05:53:30;;;;;;;2.47;1.35;;;5.70;99.90;;;;;;5071691;28;20395;-65
2022/10/11 05:55:55;;;;;;;1.70;0.95;;;5.80;99.90;;;;;;5073123;28;20036;-66
2022/10/11 05:58:21;;;;;;;2.58;1.50;;;5.90;99.90;;;;;;5073327;28;20036;-66
2022/10/11 06:00:47;;;;;;;3.63;1.40;;;5.90;99.90;;;;;;5072321;28;20048;-66
2022/10/11 06:03:13;;;;;;;8.35;2.38;;;5.90;99.90;;;;;;5071642;28;20124;-66
2022/10/11 06:05:38;;;;;;;10.35;3.63;;;5.90;99.90;;;;;;5072825;28;20044;-66
2022/10/11 06:08:06;;;;;;;9.52;3.15;;;5.80;99.90;;;;;;5073316;28;20040;-66
2022/10/11 06:10:32;;;;;;;8.50;3.08;;;;;;;;;;5072372;28;20105;-66
2022/10/11 06:12:57;;;;;;;9.13;3.38;;;6.00;99.90;;;;;;5084898;28;20040;-66
2022/10/11 06:15:23;;;;;;;7.47;2.33;;;6.00;99.90;;;;;;5085849;28;20040;-66
2022/10/11 06:17:50;;;;;;;5.97;1.83;;;5.90;99.90;;;;;;5088230;28;20043;-66
2022/10/11 06:20:15;;;;;;;5.85;1.70;;;5.90;99.90;;;;;;5082467;28;20076;-66
2022/10/11 06:22:41;;;;;;;3.83;2.00;;;5.90;99.90;;;;;;5092884;28;20128;-66
2022/10/11 06:25:07;;;;;;;14.20;3.80;;;;;;;;;;5066155;28;20497;-66
2022/10/11 06:27:33;;;;;;;8.50;3.60;;;5.80;99.90;;;;;;5086009;28;20051;-66
2022/10/11 06:29:59;;;;;;;3.38;2.00;;;6.30;99.90;;;;;;5071525;28;20029;-66
2022/10/11 06:32:25;;;;;;;4.13;2.28;;;;;;;;;;5071299;28;20036;-66
2022/10/11 06:34:51;;;;;;;6.63;2.20;;;;;;;;;;5074242;28;20109;-65
2022/10/11 06:37:17;;;;;;;8.95;2.22;;;6.30;99.90;;;;;;5079281;28;20047;-65
2022/10/11 06:39:43;;;;;;;14.27;3.38;;;;;;;;;;5091161;28;20529;-66
2022/10/11 06:42:10;;;;;;;10.32;3.58;;;6.30;99.90;;;;;;5076536;28;20090;-65
2022/10/11 06:44:36;;;;;;;11.25;3.70;;;;;;;;;;5080867;28;20122;-66
2022/10/11 06:47:02;;;;;;;24.83;6.72;;;;;;;;;;5090026;28;20152;-66
2022/10/11 06:49:28;;;;;;;4.22;2.08;;;;;;;;;;5081517;28;20056;-66
2022/10/11 06:51:54;;;;;;;4.13;1.55;;;6.40;99.90;;;;;;5069294;28;20044;-66
2022/10/11 06:54:19;;;;;;;2.28;1.35;;;6.40;99.90;;;;;;5090631;28;20531;-66
2022/10/11 06:56:45;;;;;;;4.03;1.60;;;6.40;99.90;;;;;;5090707;28;20115;-66
2022/10/11 06:59:12;;;;;;;8.27;2.70;;;6.50;99.90;;;;;;5092020;28;20097;-67
2022/10/11 07:01:38;;;;;;;5.47;2.13;;;6.60;99.90;;;;;;5091220;28;20105;-67
2022/10/11 07:04:04;;;;;;;6.60;2.10;;;6.80;99.90;;;;;;5090200;28;20048;-68
2022/10/11 07:06:30;;;;;;;9.85;2.97;;;6.80;99.90;;;;;;5080993;28;20039;-66
2022/10/11 07:08:59;;;;;;;7.50;2.20;;;6.60;99.90;;;;;;5087500;28;20039;-66
2022/10/11 07:11:26;;;;;;;24.85;6.72;;;;;;;;;;5084790;28;20051;-67
2022/10/11 07:14:01;;;;;;;10.25;2.88;;;6.90;99.90;;;;;;5093569;28;20075;-67
2022/10/11 07:16:27;;;;;;;9.40;2.80;;;;;;;;;;5101713;28;20516;-67
2022/10/11 07:18:59;;;;;;;9.77;3.35;;;7.30;99.90;;;;;;5094837;28;20036;-66
2022/10/11 07:21:25;;;;;;;12.25;3.78;;;7.70;99.90;;;;;;5080663;28;20044;-66
2022/10/11 07:23:51;;;;;;;14.43;3.92;;;;;;;;;;5106926;28;20460;-66
2022/10/11 07:26:17;;;;;;;11.43;3.75;;;7.40;99.90;;;;;;5110445;28;20398;-66
2022/10/11 07:28:43;;;;;;;9.18;2.90;;;7.50;99.90;;;;;;5105090;28;20043;-66
2022/10/11 07:31:13;;;;;;;12.65;2.97;;;7.70;99.90;;;;;;5096814;28;20044;-67
2022/10/11 07:33:39;;;;;;;11.48;4.32;;;;;;;;;;5093966;28;20448;-66
2022/10/11 07:36:05;;;;;;;15.40;3.20;;;;;;;;;;5095709;28;20397;-66
2022/10/11 07:38:32;;;;;;;16.98;3.97;;;;;;;;;;5107872;28;20046;-67
2022/10/11 07:40:57;;;;;;;19.65;4.15;;;8.60;99.90;;;;;;5093989;28;20444;-66
2022/10/11 07:43:23;;;;;;;16.55;4.40;;;9.00;99.90;;;;;;5095164;28;20238;-66
2022/10/11 07:45:53;;;;;;;10.63;3.30;;;9.20;99.90;;;;;;5093795;28;20044;-67
2022/10/11 07:48:19;;;;;;;17.00;3.97;;;9.40;99.90;;;;;;5094905;28;20383;-66
2022/10/11 07:50:44;;;;;;;16.50;3.90;;;9.60;99.90;;;;;;5080537;28;20039;-66
2022/10/11 07:53:10;;;;;;;16.20;2.90;;;9.80;99.90;;;;;;5094926;28;20032;-66
2022/10/11 07:55:39;;;;;;;9.40;2.40;;;9.60;99.90;;;;;;5080653;28;20603;-65
2022/10/11 07:58:09;;;;;;;9.82;2.83;;;9.70;99.90;;;;;;5093307;28;20031;-67
2022/10/11 08:00:35;;;;;;;16.98;2.85;;;9.70;99.90;;;;;;5090247;28;20594;-65
2022/10/11 08:03:03;;;;;;;15.10;3.30;;;9.80;99.90;;;;;;5098104;28;20052;-67
2022/10/11 08:05:29;;;;;;;14.60;3.00;;;9.90;99.90;;;;;;5093317;28;20052;-68
2022/10/11 08:07:54;;;;;;;9.45;3.55;;;10.00;99.90;;;;;;5096651;28;20036;-68
2022/10/11 08:10:20;;;;;;;13.68;3.13;;;;;;;;;;5093282;28;20031;-67
2022/10/11 08:12:47;;;;;;;9.93;2.78;;;10.20;99.90;;;;;;5094316;28;20433;-67
2022/10/11 08:15:12;;;;;;;10.18;2.40;;;10.50;99.90;;;;;;5094625;28;20032;-67
2022/10/11 08:17:38;;;;;;;8.60;2.47;;;10.50;99.90;;;;;;5086923;28;20401;-67
2022/10/11 08:20:04;;;;;;;7.47;2.38;;;11.10;99.90;;;;;;5083657;28;20497;-67
2022/10/11 08:22:32;;;;;;;11.02;2.45;;;11.70;99.90;;;;;;5093531;28;20036;-66
2022/10/11 08:24:58;;;;;;;19.88;3.85;;;12.50;99.90;;;;;;5089830;28;20085;-68
2022/10/11 08:27:23;;;;;;;15.75;3.20;;;12.70;99.90;;;;;;5083564;28;20044;-68
2022/10/11 08:29:49;;;;;;;14.50;2.70;;;;;;;;;;5084041;28;20128;-66
2022/10/11 08:32:15;;;;;;;7.85;2.15;;;13.90;99.90;;;;;;5069089;28;20048;-66
2022/10/11 08:34:41;;;;;;;12.40;3.65;;;;;;;;;;5092978;28;20043;-66
2022/10/11 08:37:07;;;;;;;11.30;2.35;;;14.40;99.90;;;;;;5091075;28;20044;-67
2022/10/11 08:39:32;;;;;;;10.68;2.33;;;14.30;99.90;;;;;;5081294;28;20107;-66
2022/10/11 08:42:04;;;;;;;9.32;1.98;;;14.30;99.90;;;;;;5075654;28;20096;-66
2022/10/11 08:44:42;;;;;;;13.45;2.72;;;14.90;99.90;;;;;;5080125;28;20082;-66
2022/10/11 08:47:18;;;;;;;12.10;2.05;;;15.10;99.90;;;;;;5085175;28;20047;-66
2022/10/11 08:49:45;;;;;;;10.02;2.45;;;15.50;99.90;;;;;;5075961;28;20402;-66
2022/10/11 08:52:36;;;;;;;16.58;2.88;;;15.40;99.90;;;;;;5079475;28;20028;-67
2022/10/11 08:55:04;;;;;;;8.65;1.88;;;15.30;99.90;;;;;;5073704;28;20052;-66
2022/10/11 08:57:34;;;;;;;8.82;2.15;;;15.10;99.90;;;;;;5077852;28;20051;-66
2022/10/11 09:00:05;;;;;;;12.50;2.53;;;15.20;99.90;;;;;;5079990;28;20041;-66
2022/10/11 09:02:33;;;;;;;10.45;1.90;;;14.90;99.90;;;;;;5073411;28;20044;-65
2022/10/11 09:05:01;;;;;;;7.72;2.17;;;15.20;99.90;;;;;;5088337;28;20036;-66
2022/10/11 09:07:49;;;;;;;10.02;1.77;;;14.70;99.90;;;;;;5090598;28;20511;-65
2022/10/11 09:10:42;;;;;;;6.75;2.80;;;14.60;99.90;;;;;;5086932;28;20484;-64
2022/10/11 09:13:29;;;;;;;10.30;2.67;;;14.40;99.90;;;;;;5082463;28;20048;-64
2022/10/11 09:16:26;;;;;;;12.77;3.50;;;14.50;99.90;;;;;;5091830;28;20428;-65
2022/10/11 09:19:13;;;;;;;11.73;2.58;;;14.40;99.90;;;;;;5090139;28;20109;-68
2022/10/11 09:22:03;;;;;;;14.35;3.17;;;14.30;99.90;;;;;;5087091;28;20044;-65
2022/10/11 09:25:02;;;;;;;14.57;2.33;;;15.10;99.90;;;;;;5092696;28;20055;-66
2022/10/11 09:27:35;;;;;;;10.70;2.28;;;18.20;99.90;;;;;;5091346;28;20115;-65
2022/10/11 09:30:05;;;;;;;8.50;1.98;;;19.70;99.90;;;;;;5085559;28;20052;-66
2022/10/11 09:32:37;;;;;;;13.38;2.72;;;20.00;99.90;;;;;;5083258;28;20044;-65
2022/10/11 09:35:15;;;;;;;7.30;2.47;;;21.30;99.90;;;;;;5093026;28;20044;-63
2022/10/11 09:37:47;;;;;;;8.80;2.30;;;22.10;99.90;;;;;;5087514;28;20405;-64
2022/10/11 09:40:41;;;;;;;8.77;1.52;;;23.40;99.90;;;;;;5073647;28;20075;-63
2022/10/11 09:43:08;;;;;;;11.65;2.35;;;24.20;99.90;;;;;;5082203;28;20031;-61
2022/10/11 09:45:34;;;;;;;7.70;1.58;;;25.30;99.90;;;;;;5084100;28;20071;-63
2022/10/11 09:48:03;;;;;;;7.93;1.65;;;25.80;99.90;;;;;;5092821;28;20040;-63
2022/10/11 09:50:30;;;;;;;10.15;1.88;;;26.00;99.90;;;;;;5079492;28;20070;-62
2022/10/11 09:52:58;;;;;;;5.07;1.35;;;28.00;99.90;;;;;;5093140;28;20085;-62
2022/10/11 09:55:49;;;;;;;11.63;2.17;;;27.10;99.90;;;;;;5095437;28;20042;-64
2022/10/11 09:58:33;;;;;;;10.52;1.77;;;27.20;99.90;;;;;;5083700;28;20077;-63
2022/10/11 10:01:08;;;;;;;11.50;1.38;;;27.30;99.90;;;;;;5095791;28;20040;-64
2022/10/11 10:03:37;;;;;;;14.77;2.15;;;26.30;99.90;;;;;;5082516;28;20053;-63
2022/10/11 10:06:30;;;;;;;9.88;2.42;;;24.60;99.90;;;;;;5092598;28;20056;-63
2022/10/11 10:09:35;;;;;;;11.90;2.03;;;23.20;99.90;;;;;;5093896;28;20051;-63
2022/10/11 10:12:12;;;;;;;7.68;1.75;;;23.40;99.90;;;;;;5084858;28;20103;-63
2022/10/11 10:14:39;;;;;;;13.52;1.73;;;23.70;99.90;;;;;;5087946;28;20428;-63
2022/10/11 10:17:13;;;;;;;6.93;1.90;;;22.10;99.90;;;;;;5075935;28;20044;-63
2022/10/11 10:19:47;;;;;;;10.43;1.90;;;21.50;99.90;;;;;;5081385;28;20032;-63
2022/10/11 10:22:19;;;;;;;11.60;1.55;;;20.60;99.90;;;;;;5093238;28;20028;-62
2022/10/11 10:24:46;;;;;;;9.55;1.90;;;19.60;99.90;;;;;;5091525;28;20044;-63
2022/10/11 10:27:24;;;;;;;7.72;1.52;;;19.00;99.90;;;;;;5091576;28;20482;-62
2022/10/11 10:30:08;;;;;;;11.88;1.95;;;18.60;99.90;;;;;;5094548;28;20497;-63
2022/10/11 10:32:55;;;;;;;7.85;1.63;;;17.90;99.90;;;;;;5082292;28;20509;-64
2022/10/11 10:35:28;;;;;;;16.38;2.03;;;17.80;99.90;;;;;;5078915;28;20059;-63
2022/10/11 10:37:58;;;;;;;10.23;1.45;;;17.80;99.90;;;;;;5088478;28;20046;-63
2022/10/11 10:40:36;;;;;;;6.20;1.30;;;17.50;99.90;;;;;;5092352;28;20505;-63
2022/10/11 10:43:02;;;;;;;10.77;1.55;;;17.40;99.90;;;;;;5090220;28;20559;-64
2022/10/11 10:45:40;;;;;;;10.23;2.10;;;17.30;99.90;;;;;;5087041;28;20040;-64
2022/10/11 10:48:28;;;;;;;9.05;2.20;;;17.00;99.90;;;;;;5086141;28;20155;-64
2022/10/11 10:51:06;;;;;;;16.08;2.05;;;17.00;99.90;;;;;;5087259;28;20085;-63
2022/10/11 10:53:46;;;;;;;11.35;2.03;;;16.80;99.90;;;;;;5094944;28;20036;-64
2022/10/11 10:56:17;;;;;;;9.10;1.60;;;16.90;99.90;;;;;;5105822;28;20027;-64
2022/10/11 10:59:12;;;;;;;10.18;2.00;;;16.50;99.90;;;;;;5093357;28;20112;-64
2022/10/11 11:01:54;;;;;;;7.25;1.30;;;16.60;99.90;;;;;;5096520;28;20044;-64
2022/10/11 11:04:33;;;;;;;9.95;2.17;;;16.30;99.90;;;;;;5096627;28;20056;-65
2022/10/11 11:07:43;;;;;;;12.68;2.65;;;18.00;99.90;;;;;;5095542;28;20384;-62
2022/10/11 11:10:23;;;;;;;15.68;2.17;;;16.60;99.90;;;;;;5089998;28;20125;-65
2022/10/11 11:13:36;;;;;;;11.85;2.15;;;16.50;99.90;;;;;;5095045;28;20048;-65
2022/10/11 11:16:17;;;;;;;10.50;2.00;;;16.50;99.90;;;;;;5096511;28;20044;-65
2022/10/11 11:18:46;;;;;;;10.75;1.90;;;16.60;99.90;;;;;;5092482;28;20040;-64
2022/10/11 11:21:20;;;;;;;7.30;1.52;;;16.40;99.90;;;;;;5086681;28;20036;-64
2022/10/11 11:24:32;;;;;;;10.60;1.93;;;16.50;99.90;;;;;;5089264;28;20043;-64
2022/10/11 11:27:21;;;;;;;9.23;2.25;;;16.20;99.90;;;;;;5089823;28;20054;-65
2022/10/11 11:30:05;;;;;;;12.98;2.40;;;15.90;99.90;;;;;;5095523;28;20044;-64
2022/10/11 11:32:52;;;;;;;8.30;1.75;;;15.90;99.90;;;;;;5083854;28;20049;-63
2022/10/11 11:35:35;;;;;;;9.35;2.53;;;16.10;99.90;;;;;;5088497;28;20094;-64
2022/10/11 11:38:09;;;;;;;6.45;1.50;;;16.40;99.90;;;;;;5091721;28;20036;-64
2022/10/11 11:40:45;;;;;;;10.45;1.50;;;16.60;99.90;;;;;;5093787;28;20032;-64
2022/10/11 11:43:35;;;;;;;8.50;1.48;;;17.00;99.90;;;;;;5083985;28;20040;-64
2022/10/11 11:46:12;;;;;;;11.65;2.22;;;17.00;99.90;;;;;;5089240;28;20024;-64
2022/10/11 11:48:38;;;;;;;10.32;1.90;;;16.50;99.90;;;;;;5081222;28;20032;-64
2022/10/11 11:51:19;;;;;;;12.88;2.40;;;16.40;99.90;;;;;;5095205;28;20039;-65
2022/10/11 11:53:58;;;;;;;8.85;1.90;;;16.20;99.90;;;;;;5083801;28;20035;-65
2022/10/11 11:56:56;;;;;;;6.30;1.42;;;16.10;99.90;;;;;;5087075;28;20066;-65
2022/10/11 11:59:36;;;;;;;12.80;1.70;;;16.00;99.90;;;;;;5090706;28;20054;-65
2022/10/11 12:02:37;;;;;;;10.73;2.10;;;15.90;99.90;;;;;;5088766;28;20437;-64
2022/10/11 12:05:06;;;;;;;11.05;1.88;;;16.00;99.90;;;;;;5076094;28;20037;-65
2022/10/11 12:07:47;;;;;;;9.30;2.00;;;16.10;99.90;;;;;;5092032;28;20082;-65
2022/10/11 12:10:30;;;;;;;11.43;2.45;;;16.00;99.90;;;;;;5082497;28;20067;-65
2022/10/11 12:13:11;;;;;;;8.02;1.70;;;15.90;99.90;;;;;;5093537;28;20036;-65
2022/10/11 12:15:37;;;;;;;6.20;0.95;;;15.90;99.90;;;;;;5093956;28;20044;-66
2022/10/11 12:18:21;;;;;;;9.57;1.77;;;15.90;99.90;;;;;;5094908;28;20035;-65
2022/10/11 12:21:15;;;;;;;10.52;1.80;;;16.00;99.90;;;;;;5080591;28;20417;-64
2022/10/11 12:23:53;;;;;;;7.88;1.70;;;15.90;99.90;;;;;;5085018;28;20115;-65
2022/10/11 12:26:27;;;;;;;8.18;1.48;;;15.90;99.90;;;;;;5094633;28;20486;-64
2022/10/11 12:29:24;;;;;;;4.57;1.00;;;16.10;99.90;;;;;;5092609;28;20044;-65
2022/10/11 12:32:10;;;;;;;7.00;1.70;;;15.80;99.90;;;;;;5087115;28;20396;-65
2022/10/11 12:34:35;;;;;;;;;;;15.90;99.90;;;;;;5096673;28;20051;-65
2022/10/11 12:37:30;;;;;;;9.27;1.63;;;15.90;99.90;;;;;;5111943;28;19923;-65
2022/10/11 12:39:57;;;;;;;6.95;1.40;;;15.80;99.90;;;;;;5092126;28;20043;-65
2022/10/11 12:42:24;;;;;;;8.98;1.63;;;15.80;99.90;;;;;;5094783;28;20036;-65
2022/10/11 12:45:12;;;;;;;11.45;2.35;;;15.80;99.90;;;;;;5093413;28;20054;-65
2022/10/11 12:47:56;;;;;;;7.43;1.38;;;15.90;99.90;;;;;;5081411;28;20044;-65
2022/10/11 12:50:51;;;;;;;12.13;1.80;;;16.00;99.90;;;;;;5093563;28;20413;-65
2022/10/11 12:53:45;;;;;;;13.27;1.85;;;16.10;99.90;;;;;;5081402;28;20049;-65
2022/10/11 12:56:28;;;;;;;6.18;1.80;;;15.80;99.90;;;;;;5078632;28;20453;-65
2022/10/11 12:59:02;;;;;;;12.38;2.22;;;15.90;99.90;;;;;;5090251;28;20032;-65
2022/10/11 13:01:53;;;;;;;8.82;1.88;;;15.80;99.90;;;;;;5084095;28;20048;-65
2022/10/11 13:04:24;;;;;;;7.07;1.20;;;16.10;99.90;;;;;;5094054;28;20046;-65
2022/10/11 13:06:53;;;;;;;9.20;1.30;;;15.80;99.90;;;;;;5094381;28;20498;-63
2022/10/11 13:09:39;;;;;;;10.35;2.08;;;15.70;99.90;;;;;;5090430;28;20066;-66
2022/10/11 13:12:07;;;;;;;11.70;1.80;;;15.70;99.90;;;;;;5091847;28;20448;-67
2022/10/11 13:14:42;;;;;;;4.68;1.23;;;15.70;99.90;;;;;;5092428;28;20047;-66
2022/10/11 13:17:28;;;;;;;8.77;1.58;;;15.60;99.90;;;;;;5093896;28;20517;-65
2022/10/11 13:20:07;;;;;;;6.80;1.23;;;15.70;99.90;;;;;;5081986;28;20036;-64
2022/10/11 13:22:37;;;;;;;5.70;1.63;;;15.70;99.90;;;;;;5092110;28;20040;-64